createdAt,value
2022-09-28T00:01:24.454Z,99297.67
2022-09-28T00:03:59.731Z,99296.84
2022-09-28T00:06:30.365Z,99294.26
2022-09-28T00:08:57.703Z,99297.00
2022-09-28T00:11:28.955Z,99293.56
2022-09-28T00:14:01.794Z,99292.27
2022-09-28T00:16:34.673Z,99293.20
2022-09-28T00:19:02.493Z,99291.48
2022-09-28T00:21:33.430Z,99287.26
2022-09-28T00:24:12.578Z,99288.49
2022-09-28T00:26:54.083Z,99285.71
2022-09-28T00:29:29.907Z,99283.13
2022-09-28T00:32:02.333Z,99281.89
2022-09-28T00:34:33.188Z,99281.00
2022-09-28T00:37:02.314Z,99281.02
2022-09-28T00:39:31.735Z,99281.55
2022-09-28T00:41:59.787Z,99283.65
2022-09-28T00:44:26.286Z,99278.77
2022-09-28T00:47:03.830Z,99271.41
2022-09-28T00:49:49.119Z,99267.23
2022-09-28T00:52:28.712Z,99260.42
2022-09-28T00:55:01.276Z,99264.28
2022-09-28T00:57:29.678Z,99267.44
2022-09-28T00:59:57.972Z,99265.70
2022-09-28T01:02:24.741Z,99265.88
2022-09-28T01:04:52.838Z,99263.61
2022-09-28T01:07:21.471Z,99260.65
2022-09-28T01:09:48.501Z,99259.59
2022-09-28T01:12:16.615Z,99262.42
2022-09-28T01:14:44.756Z,99261.91
2022-09-28T01:17:19.065Z,99260.36
2022-09-28T01:20:12.390Z,99264.38
2022-09-28T01:23:01.000Z,99261.40
2022-09-28T01:25:50.737Z,99258.27
2022-09-28T01:28:36.404Z,99258.44
2022-09-28T01:31:12.687Z,99254.27
2022-09-28T01:33:55.505Z,99250.77
2022-09-28T01:36:34.825Z,99246.92
2022-09-28T01:39:12.796Z,99244.64
2022-09-28T01:41:43.871Z,99244.98
2022-09-28T01:44:17.718Z,99242.16
2022-09-28T01:46:50.706Z,99241.64
2022-09-28T01:49:24.234Z,99239.72
2022-09-28T01:52:07.497Z,99236.77
2022-09-28T01:55:11.999Z,99239.21
2022-09-28T01:57:48.412Z,99241.98
2022-09-28T02:00:19.176Z,99243.76
2022-09-28T02:03:06.775Z,99234.33
2022-09-28T02:05:42.007Z,99235.02
2022-09-28T02:08:17.470Z,99235.90
2022-09-28T02:10:54.409Z,99233.11
2022-09-28T02:13:32.821Z,99233.27
2022-09-28T02:16:37.779Z,99233.80
2022-09-28T02:19:10.097Z,99231.34
2022-09-28T02:22:25.623Z,99225.05
2022-09-28T02:25:03.353Z,99226.27
2022-09-28T02:28:04.324Z,99224.85
2022-09-28T02:30:35.722Z,99227.29
2022-09-28T02:33:24.521Z,99227.98
2022-09-28T02:35:51.557Z,99224.63
2022-09-28T02:38:18.430Z,99223.94
2022-09-28T02:41:09.240Z,99223.94
2022-09-28T02:44:03.408Z,99219.36
2022-09-28T02:46:43.293Z,99224.08
2022-09-28T02:49:42.733Z,99220.76
2022-09-28T02:52:28.913Z,99216.06
2022-09-28T02:55:24.569Z,99215.54
2022-09-28T02:58:16.800Z,99217.60
2022-09-28T03:01:06.580Z,99218.64
2022-09-28T03:03:56.152Z,99216.69
2022-09-28T03:06:42.583Z,99212.85
2022-09-28T03:09:30.164Z,99208.13
2022-09-28T03:12:05.199Z,99205.13
2022-09-28T03:14:31.964Z,99201.77
2022-09-28T03:16:58.568Z,99201.45
2022-09-28T03:19:32.551Z,99198.64
2022-09-28T03:22:00.116Z,99198.08
2022-09-28T03:24:27.172Z,99194.60
2022-09-28T03:26:53.962Z,99192.02
2022-09-28T03:29:20.627Z,99191.29
2022-09-28T03:31:47.944Z,99190.73
2022-09-28T03:34:15.341Z,99185.17
2022-09-28T03:36:42.701Z,99183.97
2022-09-28T03:39:09.301Z,99187.80
2022-09-28T03:41:35.910Z,99187.13
2022-09-28T03:44:03.207Z,99184.46
2022-09-28T03:46:29.893Z,99182.55
2022-09-28T03:48:58.765Z,99182.38
2022-09-28T03:51:26.167Z,99179.39
2022-09-28T03:53:52.834Z,99182.48
2022-09-28T03:56:19.525Z,99181.88
2022-09-28T03:58:46.221Z,99180.15
2022-09-28T04:01:18.281Z,99176.02
2022-09-28T04:03:46.282Z,99175.90
2022-09-28T04:06:14.393Z,99174.16
2022-09-28T04:08:41.120Z,99173.48
2022-09-28T04:11:07.746Z,99172.40
2022-09-28T04:13:34.450Z,99169.96
2022-09-28T04:16:02.120Z,99165.59
2022-09-28T04:18:29.994Z,99170.48
2022-09-28T04:21:09.457Z,99164.38
2022-09-28T04:23:39.424Z,99164.15
2022-09-28T04:26:16.471Z,99165.17
2022-09-28T04:29:06.595Z,99163.45
2022-09-28T04:31:55.279Z,99164.66
2022-09-28T04:34:23.560Z,99167.64
2022-09-28T04:36:50.543Z,99169.27
2022-09-28T04:39:19.404Z,99165.45
2022-09-28T04:41:48.813Z,99162.80
2022-09-28T04:44:15.869Z,99161.91
2022-09-28T04:46:42.908Z,99159.14
2022-09-28T04:49:11.350Z,99160.34
2022-09-28T04:51:37.977Z,99161.89
2022-09-28T04:54:04.874Z,99169.23
2022-09-28T04:56:31.529Z,99170.79
2022-09-28T04:58:58.246Z,99171.30
2022-09-28T05:01:25.777Z,99171.15
2022-09-28T05:03:52.689Z,99174.64
2022-09-28T05:06:19.387Z,99174.98
2022-09-28T05:08:48.934Z,99174.30
2022-09-28T05:11:15.837Z,99175.88
2022-09-28T05:13:45.568Z,99172.41
2022-09-28T05:16:16.061Z,99172.77
2022-09-28T05:18:43.137Z,99173.48
2022-09-28T05:21:13.378Z,99178.88
2022-09-28T05:23:45.748Z,99179.60
2022-09-28T05:26:12.467Z,99179.95
2022-09-28T05:28:39.158Z,99181.02
2022-09-28T05:31:06.284Z,99178.05
2022-09-28T05:33:33.726Z,99175.42
2022-09-28T05:36:01.743Z,99169.14
2022-09-28T05:38:30.199Z,99168.98
2022-09-28T05:40:57.511Z,99166.73
2022-09-28T05:43:24.316Z,99165.86
2022-09-28T05:45:55.243Z,99164.45
2022-09-28T05:48:23.127Z,99164.96
2022-09-28T05:50:54.067Z,99159.02
2022-09-28T05:53:21.289Z,99150.48
2022-09-28T05:55:48.347Z,99145.08
2022-09-28T05:58:15.654Z,99149.61
2022-09-28T06:00:43.510Z,99152.39
2022-09-28T06:03:14.735Z,99149.95
2022-09-28T06:05:41.756Z,99141.58
2022-09-28T06:08:13.254Z,99142.98
2022-09-28T06:10:41.002Z,99142.26
2022-09-28T06:13:10.450Z,99137.05
2022-09-28T06:15:39.095Z,99138.13
2022-09-28T06:18:10.787Z,99137.60
2022-09-28T06:20:41.384Z,99139.02
2022-09-28T06:23:10.097Z,99140.77
2022-09-28T06:25:37.590Z,99136.57
2022-09-28T06:28:09.172Z,99138.70
2022-09-28T06:30:38.576Z,99135.75
2022-09-28T06:33:09.790Z,99130.50
2022-09-28T06:35:36.578Z,99124.73
2022-09-28T06:38:04.641Z,99122.95
2022-09-28T06:40:32.393Z,99119.05
2022-09-28T06:43:12.484Z,99115.31
2022-09-28T06:45:39.223Z,99113.40
2022-09-28T06:48:06.859Z,99112.48
2022-09-28T06:50:40.862Z,99114.01
2022-09-28T06:53:11.295Z,99114.43
2022-09-28T06:55:43.288Z,99113.86
2022-09-28T06:58:13.575Z,99113.98
2022-09-28T07:00:41.725Z,99116.44
2022-09-28T07:03:19.057Z,99118.20
2022-09-28T07:05:52.674Z,99120.84
2022-09-28T07:08:25.861Z,99121.71
2022-09-28T07:10:57.207Z,99118.46
2022-09-28T07:13:50.792Z,99120.55
2022-09-28T07:16:21.578Z,99120.71
2022-09-28T07:18:50.922Z,99123.20
2022-09-28T07:21:27.328Z,99118.86
2022-09-28T07:23:55.302Z,99115.26
2022-09-28T07:26:24.391Z,99116.27
2022-09-28T07:28:52.336Z,99118.64
2022-09-28T07:31:19.054Z,99120.77
2022-09-28T07:33:47.401Z,99125.30
2022-09-28T07:36:16.152Z,99128.56
2022-09-28T07:38:44.049Z,99129.05
2022-09-28T07:41:14.861Z,99133.33
2022-09-28T07:43:41.854Z,99131.48
2022-09-28T07:46:12.175Z,99132.17
2022-09-28T07:48:42.081Z,99133.09
2022-09-28T07:51:10.163Z,99131.17
2022-09-28T07:53:38.443Z,99133.30
2022-09-28T07:56:09.655Z,99128.25
2022-09-28T07:58:38.993Z,99128.27
2022-09-28T08:01:10.565Z,99129.78
2022-09-28T08:03:38.971Z,99131.27
2022-09-28T08:06:11.078Z,99129.11
2022-09-28T08:08:38.873Z,99129.23
2022-09-28T08:11:10.204Z,99130.55
2022-09-28T08:13:38.762Z,99130.82
2022-09-28T08:16:08.275Z,99128.92
2022-09-28T08:18:35.996Z,99130.94
2022-09-28T08:21:35.106Z,99128.29
2022-09-28T08:24:01.823Z,99133.17
2022-09-28T08:26:29.129Z,99134.72
2022-09-28T08:28:55.742Z,99136.86
2022-09-28T08:31:22.452Z,99136.05
2022-09-28T08:33:53.785Z,99134.94
2022-09-28T08:36:21.019Z,99138.50
2022-09-28T08:38:47.683Z,99135.73
2022-09-28T08:42:24.411Z,99139.14
2022-09-28T08:44:57.923Z,99139.38
2022-09-28T08:47:54.767Z,99140.36
2022-09-28T08:50:29.081Z,99136.89
2022-09-28T08:53:05.610Z,99137.47
2022-09-28T08:55:39.470Z,99134.16
2022-09-28T08:58:21.290Z,99137.39
2022-09-28T09:00:51.524Z,99138.61
2022-09-28T09:03:42.351Z,99134.59
2022-09-28T09:06:44.390Z,99138.55
2022-09-28T09:09:39.610Z,99139.27
2022-09-28T09:13:12.293Z,99137.32
2022-09-28T09:16:15.123Z,99134.61
2022-09-28T09:19:27.398Z,99132.70
2022-09-28T09:22:11.268Z,99134.39
2022-09-28T09:25:19.240Z,99134.83
2022-09-28T09:28:39.900Z,99136.98
2022-09-28T09:31:37.176Z,99133.66
2022-09-28T09:34:52.287Z,99132.58
2022-09-28T09:38:00.205Z,99135.10
2022-09-28T09:44:01.695Z,99137.11
2022-09-28T09:46:54.787Z,99135.88
2022-09-28T09:49:48.637Z,99139.77
2022-09-28T09:55:14.635Z,99138.23
2022-09-28T09:58:02.887Z,99140.27
2022-09-28T10:00:29.831Z,99137.77
2022-09-28T10:03:00.198Z,99141.67
2022-09-28T10:05:32.314Z,99141.00
2022-09-28T10:08:08.586Z,99135.85
2022-09-28T10:10:40.571Z,99141.73
2022-09-28T10:13:09.352Z,99145.15
2022-09-28T10:15:36.469Z,99147.48
2022-09-28T10:18:10.541Z,99148.69
2022-09-28T10:20:44.907Z,99149.21
2022-09-28T10:23:27.091Z,99148.89
2022-09-28T10:26:02.234Z,99146.08
2022-09-28T10:29:06.234Z,99147.30
2022-09-28T10:31:40.162Z,99151.59
2022-09-28T10:34:11.264Z,99150.95
2022-09-28T10:36:56.093Z,99155.84
2022-09-28T10:39:41.967Z,99161.24
2022-09-28T10:42:20.540Z,99157.35
2022-09-28T10:45:01.351Z,99164.36
2022-09-28T10:47:32.636Z,99163.98
2022-09-28T10:50:00.824Z,99159.32
2022-09-28T10:52:44.898Z,99159.45
2022-09-28T10:55:20.575Z,99164.93
2022-09-28T10:57:48.215Z,99161.71
2022-09-28T11:00:43.091Z,99164.65
2022-09-28T11:03:25.188Z,99165.65
2022-09-28T11:06:07.181Z,99160.36
2022-09-28T11:08:42.672Z,99162.23
2022-09-28T11:11:21.906Z,99160.69
2022-09-28T11:14:01.033Z,99159.76
2022-09-28T11:16:33.180Z,99159.86
2022-09-28T11:19:29.766Z,99157.48
2022-09-28T11:21:56.453Z,99157.00
2022-09-28T11:24:26.059Z,99156.52
2022-09-28T11:26:57.916Z,99158.12
2022-09-28T11:29:34.091Z,99158.84
2022-09-28T11:32:04.137Z,99160.51
2022-09-28T11:34:58.657Z,99158.02
2022-09-28T11:37:53.542Z,99156.51
2022-09-28T11:41:03.698Z,99156.29
2022-09-28T11:44:18.570Z,99157.40
2022-09-28T11:47:33.107Z,99160.59
2022-09-28T11:50:17.031Z,99160.14
2022-09-28T11:53:11.750Z,99157.41
2022-09-28T11:55:59.360Z,99161.13
2022-09-28T11:58:46.632Z,99164.40
2022-09-28T12:01:40.784Z,99161.36
2022-09-28T12:04:26.389Z,99161.30
2022-09-28T12:07:07.109Z,99163.52
2022-09-28T12:09:54.327Z,99166.12
2022-09-28T12:12:45.497Z,99164.32
2022-09-28T12:15:23.444Z,99165.88
2022-09-28T12:18:02.657Z,99167.46
2022-09-28T12:20:35.560Z,99165.78
2022-09-28T12:23:24.232Z,99165.55
2022-09-28T12:26:01.766Z,99161.16
2022-09-28T12:28:42.086Z,99164.07
2022-09-28T12:31:28.961Z,99168.02
2022-09-28T12:33:55.595Z,99164.93
2022-09-28T12:36:49.750Z,99164.74
2022-09-28T12:39:56.934Z,99163.94
2022-09-28T12:43:19.245Z,99162.80
2022-09-28T12:46:25.072Z,99166.06
2022-09-28T12:50:01.787Z,99164.98
2022-09-28T12:52:27.054Z,99163.48
2022-09-28T12:55:22.786Z,99169.24
2022-09-28T12:58:26.957Z,99168.24
2022-09-28T13:01:35.806Z,99169.33
2022-09-28T13:04:31.259Z,99168.70
2022-09-28T13:07:19.439Z,99166.69
2022-09-28T13:10:01.419Z,99167.39
2022-09-28T13:13:02.201Z,99165.98
2022-09-28T13:15:46.624Z,99169.59
2022-09-28T13:18:27.499Z,99168.99
2022-09-28T13:21:34.665Z,99169.96
2022-09-28T13:24:20.916Z,99170.60
2022-09-28T13:26:57.661Z,99172.20
2022-09-28T13:29:27.002Z,99170.30
2022-09-28T13:31:58.378Z,99166.66
2022-09-28T13:34:35.235Z,99168.08
2022-09-28T13:37:16.112Z,99169.10
2022-09-28T13:39:45.515Z,99166.23
2022-09-28T13:42:52.880Z,99163.70
2022-09-28T13:45:22.267Z,99167.95
2022-09-28T13:47:51.725Z,99166.79
2022-09-28T13:50:56.246Z,99166.67
2022-09-28T13:53:48.238Z,99167.08
2022-09-28T13:56:36.103Z,99168.10
2022-09-28T13:59:28.767Z,99173.60
2022-09-28T14:02:22.380Z,99170.30
2022-09-28T14:05:23.387Z,99171.46
2022-09-28T14:08:24.007Z,99176.51
2022-09-28T14:10:54.950Z,99180.92
2022-09-28T14:13:43.525Z,99183.70
2022-09-28T14:16:21.982Z,99187.73
2022-09-28T14:19:10.045Z,99191.85
2022-09-28T14:22:01.384Z,99193.29
2022-09-28T14:25:11.615Z,99195.42
2022-09-28T14:27:56.863Z,99201.61
2022-09-28T14:30:29.525Z,99201.56
2022-09-28T14:32:59.549Z,99200.38
2022-09-28T14:35:38.975Z,99200.08
2022-09-28T14:38:35.676Z,99205.12
2022-09-28T14:41:33.681Z,99209.69
2022-09-28T14:44:12.016Z,99206.95
2022-09-28T14:46:44.692Z,99212.62
2022-09-28T14:49:20.319Z,99213.73
2022-09-28T14:51:52.788Z,99219.35
2022-09-28T14:54:23.286Z,99218.83
2022-09-28T14:57:04.924Z,99223.48
2022-09-28T14:59:39.394Z,99221.65
2022-09-28T15:02:19.922Z,99226.10
2022-09-28T15:04:53.553Z,99227.67
2022-09-28T15:07:28.640Z,99224.84
2022-09-28T15:10:02.060Z,99226.41
2022-09-28T15:12:32.048Z,99224.89
2022-09-28T15:15:24.560Z,99229.36
2022-09-28T15:18:08.960Z,99231.48
2022-09-28T15:20:41.951Z,99234.08
2022-09-28T15:23:26.962Z,99229.26
2022-09-28T15:25:55.220Z,99231.98
2022-09-28T15:28:24.300Z,99231.26
2022-09-28T15:30:58.597Z,99229.93
2022-09-28T15:33:53.030Z,99230.58
2022-09-28T15:36:29.993Z,99237.30
2022-09-28T15:39:10.519Z,99238.49
2022-09-28T15:41:37.722Z,99237.39
2022-09-28T15:44:29.056Z,99237.73
2022-09-28T15:47:28.127Z,99240.04
2022-09-28T15:50:31.668Z,99248.02
2022-09-28T15:53:03.401Z,99253.13
2022-09-28T15:55:42.379Z,99252.60
2022-09-28T15:58:24.283Z,99253.64
2022-09-28T16:01:36.650Z,99256.48
2022-09-28T16:04:48.160Z,99257.36
2022-09-28T16:07:23.470Z,99256.66
2022-09-28T16:10:12.950Z,99259.65
2022-09-28T16:12:58.710Z,99261.72
2022-09-28T16:15:31.158Z,99264.86
2022-09-28T16:18:22.043Z,99268.19
2022-09-28T16:20:53.186Z,99268.65
2022-09-28T16:23:33.185Z,99273.20
2022-09-28T16:26:16.862Z,99273.04
2022-09-28T16:28:46.442Z,99278.64
2022-09-28T16:31:13.036Z,99281.11
2022-09-28T16:33:55.189Z,99283.01
2022-09-28T16:36:22.958Z,99282.48
2022-09-28T16:38:50.011Z,99286.34
2022-09-28T16:41:22.911Z,99290.73
2022-09-28T16:44:02.091Z,99292.48
2022-09-28T16:46:37.501Z,99294.26
2022-09-28T16:49:07.165Z,99297.09
2022-09-28T16:51:34.076Z,99297.46
2022-09-28T16:54:39.469Z,99301.48
2022-09-28T16:57:09.728Z,99304.82
2022-09-28T16:59:38.458Z,99304.47
2022-09-28T17:02:46.346Z,99305.18
2022-09-28T17:05:17.827Z,99307.27
2022-09-28T17:07:45.483Z,99307.64
2022-09-28T17:10:49.788Z,99309.42
2022-09-28T17:13:29.944Z,99318.55
2022-09-28T17:15:57.854Z,99319.23
2022-09-28T17:18:24.928Z,99321.34
2022-09-28T17:20:55.909Z,99323.45
2022-09-28T17:23:22.633Z,99323.81
2022-09-28T17:25:49.669Z,99328.19
2022-09-28T17:28:27.282Z,99329.77
2022-09-28T17:30:54.588Z,99331.15
2022-09-28T17:33:21.485Z,99335.36
2022-09-28T17:36:00.673Z,99332.40
2022-09-28T17:38:27.950Z,99334.86
2022-09-28T17:40:54.699Z,99341.68
2022-09-28T17:43:22.285Z,99338.54
2022-09-28T17:45:50.614Z,99341.52
2022-09-28T17:48:23.268Z,99344.50
2022-09-28T17:50:51.219Z,99344.70
2022-09-28T17:53:18.495Z,99346.27
2022-09-28T17:55:45.357Z,99344.32
2022-09-28T17:58:22.060Z,99345.72
2022-09-28T18:00:51.529Z,99347.14
2022-09-28T18:03:24.565Z,99345.72
2022-09-28T18:06:19.220Z,99347.30
2022-09-28T18:08:46.906Z,99350.44
2022-09-28T18:11:13.659Z,99352.20
2022-09-28T18:13:40.811Z,99351.15
2022-09-28T18:16:08.861Z,99352.20
2022-09-28T18:18:39.870Z,99352.21
2022-09-28T18:21:07.781Z,99352.71
2022-09-28T18:23:39.048Z,99357.09
2022-09-28T18:26:14.058Z,99357.45
2022-09-28T18:28:41.385Z,99364.47
2022-09-28T18:31:11.102Z,99366.73
2022-09-28T18:33:51.409Z,99370.43
2022-09-28T18:36:18.210Z,99369.69
2022-09-28T18:38:44.869Z,99371.77
2022-09-28T18:41:15.824Z,99373.01
2022-09-28T18:43:50.081Z,99375.83
2022-09-28T18:46:18.374Z,99378.30
2022-09-28T18:48:47.733Z,99383.90
2022-09-28T18:51:14.781Z,99387.77
2022-09-28T18:53:42.216Z,99388.99
2022-09-28T18:56:13.254Z,99394.78
2022-09-28T18:58:42.635Z,99397.23
2022-09-28T19:01:32.312Z,99398.45
2022-09-28T19:04:01.787Z,99398.80
2022-09-28T19:06:30.253Z,99401.59
2022-09-28T19:08:58.710Z,99403.88
2022-09-28T19:11:26.751Z,99402.81
2022-09-28T19:13:55.784Z,99403.36
2022-09-28T19:16:29.949Z,99400.54
2022-09-28T19:18:58.819Z,99408.07
2022-09-28T19:21:26.744Z,99406.67
2022-09-28T19:23:55.749Z,99406.33
2022-09-28T19:26:27.833Z,99411.23
2022-09-28T19:28:57.725Z,99414.04
2022-09-28T19:31:25.686Z,99414.04
2022-09-28T19:33:52.455Z,99413.52
2022-09-28T19:36:23.950Z,99412.25
2022-09-28T19:38:53.174Z,99414.69
2022-09-28T19:41:43.512Z,99415.21
2022-09-28T19:44:25.468Z,99418.17
2022-09-28T19:47:13.134Z,99416.59
2022-09-28T19:49:41.181Z,99421.13
2022-09-28T19:52:17.307Z,99423.73
2022-09-28T19:54:59.956Z,99424.08
2022-09-28T19:57:31.031Z,99421.77
2022-09-28T20:00:02.119Z,99425.09
2022-09-28T20:02:29.411Z,99426.48
2022-09-28T20:04:56.312Z,99426.66
2022-09-28T20:07:23.046Z,99434.34
2022-09-28T20:09:49.770Z,99436.74
2022-09-28T20:12:17.292Z,99439.34
2022-09-28T20:14:43.991Z,99440.23
2022-09-28T20:17:10.907Z,99443.73
2022-09-28T20:19:37.755Z,99444.58
2022-09-28T20:22:04.832Z,99449.23
2022-09-28T20:24:32.937Z,99453.39
2022-09-28T20:27:01.396Z,99457.53
2022-09-28T20:29:31.579Z,99458.91
2022-09-28T20:31:59.017Z,99462.16
2022-09-28T20:34:25.932Z,99467.42
2022-09-28T20:36:52.819Z,99469.31
2022-09-28T20:39:19.755Z,99474.05
2022-09-28T20:41:49.303Z,99473.05
2022-09-28T20:44:16.488Z,99473.41
2022-09-28T20:46:44.252Z,99475.02
2022-09-28T20:49:11.618Z,99472.73
2022-09-28T20:51:38.249Z,99475.95
2022-09-28T20:54:05.188Z,99474.30
2022-09-28T20:56:37.637Z,99473.64
2022-09-28T20:59:11.655Z,99473.89
2022-09-28T21:01:38.912Z,99477.41
2022-09-28T21:04:08.918Z,99484.38
2022-09-28T21:06:41.319Z,99485.95
2022-09-28T21:09:10.283Z,99481.98
2022-09-28T21:11:38.855Z,99487.97
2022-09-28T21:14:09.640Z,99488.67
2022-09-28T21:16:37.146Z,99488.95
2022-09-28T21:19:04.400Z,99492.38
2022-09-28T21:21:31.931Z,99496.24
2022-09-28T21:23:59.480Z,99492.61
2022-09-28T21:26:29.274Z,99494.83
2022-09-28T21:28:59.410Z,99494.45
2022-09-28T21:31:30.767Z,99497.96
2022-09-28T21:33:58.445Z,99498.52
2022-09-28T21:36:25.926Z,99498.63
2022-09-28T21:38:55.063Z,99499.88
2022-09-28T21:41:22.677Z,99498.27
2022-09-28T21:43:49.436Z,99499.14
2022-09-28T21:46:17.602Z,99501.56
2022-09-28T21:48:44.599Z,99507.40
2022-09-28T21:51:14.869Z,99510.06
2022-09-28T21:53:42.611Z,99513.80
2022-09-28T21:56:12.500Z,99516.98
2022-09-28T21:58:40.763Z,99517.52
2022-09-28T22:01:23.481Z,99522.80
2022-09-28T22:03:54.270Z,99524.23
2022-09-28T22:06:24.389Z,99524.93
2022-09-28T22:08:51.351Z,99522.30
2022-09-28T22:11:22.012Z,99523.19
2022-09-28T22:13:53.416Z,99525.44
2022-09-28T22:16:23.730Z,99528.41
2022-09-28T22:18:50.978Z,99527.21
2022-09-28T22:21:28.671Z,99531.42
2022-09-28T22:24:01.111Z,99535.61
2022-09-28T22:26:29.845Z,99533.69
2022-09-28T22:29:08.976Z,99535.96
2022-09-28T22:31:40.329Z,99534.38
2022-09-28T22:34:08.498Z,99536.31
2022-09-28T22:36:36.007Z,99535.27
2022-09-28T22:39:03.185Z,99532.30
2022-09-28T22:41:30.138Z,99529.88
2022-09-28T22:43:56.884Z,99530.89
2022-09-28T22:46:27.291Z,99534.54
2022-09-28T22:48:57.852Z,99534.52
2022-09-28T22:51:27.883Z,99538.52
2022-09-28T22:53:56.543Z,99540.92
2022-09-28T22:56:24.428Z,99541.55
2022-09-28T22:58:51.486Z,99544.67
2022-09-28T23:01:22.312Z,99544.73
2022-09-28T23:03:52.009Z,99547.52
2022-09-28T23:06:22.435Z,99547.17
2022-09-28T23:08:51.273Z,99544.52
2022-09-28T23:11:19.376Z,99544.02
2022-09-28T23:14:04.131Z,99543.65
2022-09-28T23:16:30.804Z,99543.45
2022-09-28T23:18:58.201Z,99539.72
2022-09-28T23:21:28.070Z,99541.77
2022-09-28T23:24:03.202Z,99547.66
2022-09-28T23:26:34.226Z,99546.73
2022-09-28T23:29:00.987Z,99544.98
2022-09-28T23:31:32.904Z,99545.67
2022-09-28T23:34:02.982Z,99544.39
2022-09-28T23:36:30.785Z,99546.14
2022-09-28T23:38:58.232Z,99552.02
2022-09-28T23:41:24.910Z,99549.92
2022-09-28T23:43:51.641Z,99550.58
2022-09-28T23:46:20.886Z,99552.20
2022-09-28T23:48:49.905Z,99548.20
2022-09-28T23:51:16.979Z,99547.65
2022-09-28T23:53:43.926Z,99550.23
2022-09-28T23:56:11.497Z,99551.40
2022-09-28T23:58:38.559Z,99553.64
